createdAt,value
2022-12-29T00:01:53.537Z,97.70
2022-12-29T00:04:20.124Z,97.80
2022-12-29T00:06:46.779Z,96.90
2022-12-29T00:09:16.515Z,97.20
2022-12-29T00:11:43.098Z,97.10
2022-12-29T00:14:28.707Z,96.90
2022-12-29T00:16:55.369Z,96.40
2022-12-29T00:19:40.845Z,96.50
2022-12-29T00:22:25.936Z,96.70
2022-12-29T00:25:11.423Z,96.40
2022-12-29T00:27:59.240Z,96.00
2022-12-29T00:30:48.371Z,96.00
2022-12-29T00:33:33.949Z,96.20
2022-12-29T00:36:00.569Z,95.70
2022-12-29T00:38:46.033Z,96.10
2022-12-29T00:41:31.056Z,96.00
2022-12-29T00:44:06.861Z,96.10
2022-12-29T00:46:33.926Z,96.40
2022-12-29T00:49:19.333Z,96.80
2022-12-29T00:51:45.911Z,96.70
2022-12-29T00:54:12.516Z,96.60
2022-12-29T00:56:39.162Z,96.60
2022-12-29T00:59:05.779Z,96.50
2022-12-29T01:01:32.616Z,96.40
2022-12-29T01:04:03.690Z,95.60
2022-12-29T01:06:30.839Z,95.80
2022-12-29T01:09:16.338Z,95.00
2022-12-29T01:11:42.943Z,94.30
2022-12-29T01:14:09.580Z,93.50
2022-12-29T01:16:37.452Z,92.70
2022-12-29T01:19:04.086Z,93.60
2022-12-29T01:21:30.685Z,91.90
2022-12-29T01:23:57.287Z,92.10
2022-12-29T01:26:23.879Z,92.30
2022-12-29T01:28:50.458Z,92.00
2022-12-29T01:31:17.217Z,92.00
2022-12-29T01:33:44.559Z,92.00
2022-12-29T01:36:11.158Z,92.60
2022-12-29T01:38:37.773Z,93.80
2022-12-29T01:41:04.349Z,93.50
2022-12-29T01:43:30.940Z,94.20
2022-12-29T01:45:57.562Z,94.00
2022-12-29T01:48:24.212Z,94.10
2022-12-29T01:50:50.821Z,94.00
2022-12-29T01:53:17.478Z,94.50
2022-12-29T01:55:44.977Z,94.70
2022-12-29T01:58:11.539Z,94.10
2022-12-29T02:00:38.203Z,94.20
2022-12-29T02:03:04.904Z,93.30
2022-12-29T02:05:31.553Z,93.40
2022-12-29T02:07:58.164Z,92.30
2022-12-29T02:10:24.839Z,92.20
2022-12-29T02:12:51.454Z,92.00
2022-12-29T02:15:18.044Z,91.80
2022-12-29T02:17:45.000Z,92.00
2022-12-29T02:20:11.560Z,92.10
2022-12-29T02:22:38.198Z,93.10
2022-12-29T02:25:04.825Z,91.90
2022-12-29T02:27:31.429Z,92.40
2022-12-29T02:29:58.029Z,92.70
2022-12-29T02:32:24.652Z,92.60
2022-12-29T02:34:51.312Z,92.60
2022-12-29T02:37:17.930Z,93.10
2022-12-29T02:39:44.810Z,92.80
2022-12-29T02:42:11.397Z,92.60
2022-12-29T02:44:38.029Z,92.90
2022-12-29T02:47:04.665Z,93.00
2022-12-29T02:49:33.373Z,93.40
2022-12-29T02:52:00.640Z,93.00
2022-12-29T02:54:42.665Z,93.10
2022-12-29T02:57:09.270Z,93.30
2022-12-29T02:59:35.918Z,92.50
2022-12-29T03:02:18.185Z,92.70
2022-12-29T03:04:44.928Z,93.10
2022-12-29T03:07:11.574Z,93.00
2022-12-29T03:09:38.254Z,92.90
2022-12-29T03:12:11.204Z,92.90
2022-12-29T03:14:56.682Z,92.10
2022-12-29T03:17:23.261Z,92.10
2022-12-29T03:19:49.950Z,91.70
2022-12-29T03:22:28.773Z,91.80
2022-12-29T03:24:55.437Z,91.40
2022-12-29T03:27:22.117Z,91.60
2022-12-29T03:29:53.312Z,90.40
2022-12-29T03:32:19.942Z,91.10
2022-12-29T03:34:46.695Z,90.10
2022-12-29T03:37:13.285Z,90.10
2022-12-29T03:39:39.951Z,90.60
2022-12-29T03:42:06.577Z,90.30
2022-12-29T03:44:34.035Z,91.20
2022-12-29T03:47:00.685Z,90.20
2022-12-29T03:49:27.294Z,92.10
2022-12-29T03:51:53.924Z,92.50
2022-12-29T03:54:20.482Z,92.10
2022-12-29T03:56:47.121Z,93.60
2022-12-29T03:59:13.753Z,92.40
2022-12-29T04:01:41.136Z,91.90
2022-12-29T04:04:07.796Z,91.90
2022-12-29T04:06:34.377Z,92.60
2022-12-29T04:09:00.964Z,91.60
2022-12-29T04:11:32.835Z,91.50
2022-12-29T04:13:59.908Z,91.80
2022-12-29T04:16:26.606Z,91.40
2022-12-29T04:18:53.241Z,92.20
2022-12-29T04:21:19.869Z,92.60
2022-12-29T04:23:46.528Z,93.40
2022-12-29T04:26:13.135Z,93.90
2022-12-29T04:28:39.773Z,95.30
2022-12-29T04:31:06.675Z,95.70
2022-12-29T04:33:34.076Z,95.80
2022-12-29T04:36:00.712Z,96.50
2022-12-29T04:38:27.378Z,96.70
2022-12-29T04:40:54.033Z,96.80
2022-12-29T04:43:20.807Z,96.70
2022-12-29T04:45:47.398Z,96.80
2022-12-29T04:48:14.015Z,96.60
2022-12-29T04:50:40.627Z,96.50
2022-12-29T04:53:07.201Z,96.70
2022-12-29T04:55:33.797Z,96.40
2022-12-29T04:58:00.377Z,96.00
2022-12-29T05:00:26.997Z,96.40
2022-12-29T05:02:53.697Z,96.20
2022-12-29T05:05:20.397Z,96.30
2022-12-29T05:07:47.023Z,96.40
2022-12-29T05:10:13.699Z,96.40
2022-12-29T05:12:41.090Z,96.70
2022-12-29T05:15:07.762Z,97.00
2022-12-29T05:17:34.364Z,97.60
2022-12-29T05:20:01.090Z,97.60
2022-12-29T05:22:27.695Z,97.70
2022-12-29T05:24:54.263Z,97.90
2022-12-29T05:27:20.860Z,98.40
2022-12-29T05:29:47.455Z,98.30
2022-12-29T05:32:14.172Z,98.10
2022-12-29T05:34:41.324Z,98.40
2022-12-29T05:37:07.939Z,97.90
2022-12-29T05:39:34.505Z,97.70
2022-12-29T05:42:01.117Z,97.90
2022-12-29T05:44:27.760Z,97.40
2022-12-29T05:46:54.458Z,97.60
2022-12-29T05:49:21.098Z,97.20
2022-12-29T05:51:47.722Z,97.10
2022-12-29T05:54:14.344Z,96.50
2022-12-29T05:56:40.926Z,96.60
2022-12-29T05:59:07.509Z,96.10
2022-12-29T06:01:35.413Z,96.00
2022-12-29T06:04:02.269Z,96.40
2022-12-29T06:06:29.015Z,95.90
2022-12-29T06:08:55.832Z,95.70
2022-12-29T06:11:22.438Z,95.30
2022-12-29T06:13:49.072Z,95.60
2022-12-29T06:16:15.702Z,95.30
2022-12-29T06:18:42.353Z,94.90
2022-12-29T06:21:09.099Z,93.70
2022-12-29T06:23:35.746Z,93.40
2022-12-29T06:26:02.355Z,93.80
2022-12-29T06:28:28.977Z,93.50
2022-12-29T06:30:55.573Z,94.10
2022-12-29T06:33:22.155Z,94.00
2022-12-29T06:35:48.803Z,92.80
2022-12-29T06:38:15.526Z,93.50
2022-12-29T06:40:42.305Z,93.30
2022-12-29T06:43:08.977Z,93.60
2022-12-29T06:45:35.662Z,93.50
2022-12-29T06:48:02.483Z,93.10
2022-12-29T06:50:29.153Z,93.10
2022-12-29T06:52:55.814Z,93.10
2022-12-29T06:55:23.439Z,93.30
2022-12-29T06:57:50.151Z,93.80
2022-12-29T07:00:22.339Z,92.70
2022-12-29T07:02:49.654Z,93.00
2022-12-29T07:05:16.372Z,92.60
2022-12-29T07:07:43.582Z,93.60
2022-12-29T07:10:10.253Z,93.00
2022-12-29T07:12:36.892Z,92.60
2022-12-29T07:15:03.534Z,93.10
2022-12-29T07:17:30.274Z,92.90
2022-12-29T07:19:56.908Z,92.90
2022-12-29T07:22:23.532Z,92.40
2022-12-29T07:24:50.168Z,92.90
2022-12-29T07:27:16.856Z,93.00
2022-12-29T07:29:43.450Z,94.00
2022-12-29T07:32:10.160Z,93.60
2022-12-29T07:34:36.851Z,93.90
2022-12-29T07:37:03.771Z,94.00
2022-12-29T07:39:30.691Z,93.70
2022-12-29T07:42:04.349Z,93.20
2022-12-29T07:44:31.898Z,93.30
2022-12-29T07:46:59.025Z,93.10
2022-12-29T07:49:26.117Z,92.50
2022-12-29T07:51:53.086Z,92.70
2022-12-29T07:54:19.729Z,93.30
2022-12-29T07:56:46.410Z,92.70
2022-12-29T07:59:16.207Z,93.00
2022-12-29T08:01:42.996Z,92.50
2022-12-29T08:04:09.749Z,92.70
2022-12-29T08:06:36.524Z,93.10
2022-12-29T08:09:12.224Z,92.70
2022-12-29T08:11:44.280Z,92.80
2022-12-29T08:14:11.115Z,93.80
2022-12-29T08:16:37.767Z,93.60
2022-12-29T08:19:06.068Z,93.60
2022-12-29T08:21:32.732Z,94.10
2022-12-29T08:24:00.209Z,94.30
2022-12-29T08:26:27.129Z,94.80
2022-12-29T08:28:53.759Z,93.90
2022-12-29T08:31:20.915Z,94.00
2022-12-29T08:33:47.568Z,94.00
2022-12-29T08:36:14.176Z,94.70
2022-12-29T08:38:40.765Z,94.60
2022-12-29T08:41:07.399Z,94.40
2022-12-29T08:43:34.020Z,94.70
2022-12-29T08:46:00.747Z,94.60
2022-12-29T08:48:27.452Z,94.60
2022-12-29T08:50:54.074Z,94.80
2022-12-29T08:53:20.740Z,94.80
2022-12-29T08:55:47.631Z,94.70
2022-12-29T08:58:15.740Z,94.80
2022-12-29T09:00:42.440Z,95.20
2022-12-29T09:03:09.283Z,94.80
2022-12-29T09:05:36.205Z,95.00
2022-12-29T09:08:02.805Z,94.80
2022-12-29T09:10:29.448Z,94.40
2022-12-29T09:12:56.126Z,94.70
2022-12-29T09:15:22.701Z,94.30
2022-12-29T09:17:49.449Z,94.50
2022-12-29T09:20:16.216Z,94.50
2022-12-29T09:22:43.439Z,94.20
2022-12-29T09:25:10.254Z,94.40
2022-12-29T09:27:36.909Z,93.60
2022-12-29T09:30:03.720Z,94.20
2022-12-29T09:32:33.820Z,95.40
2022-12-29T09:35:01.266Z,94.90
2022-12-29T09:37:27.952Z,94.40
2022-12-29T09:39:54.902Z,93.90
2022-12-29T09:42:21.921Z,93.90
2022-12-29T09:44:48.516Z,94.40
2022-12-29T09:47:15.677Z,94.70
2022-12-29T09:49:43.448Z,94.40
2022-12-29T09:52:10.504Z,93.90
2022-12-29T09:54:37.339Z,93.80
2022-12-29T09:57:04.175Z,93.90
2022-12-29T09:59:31.034Z,93.40
2022-12-29T10:01:58.515Z,92.50
2022-12-29T10:04:25.698Z,93.70
2022-12-29T10:09:39.432Z,92.50
2022-12-29T10:12:06.038Z,92.30
2022-12-29T10:14:32.628Z,91.90
2022-12-29T10:16:59.284Z,92.60
2022-12-29T10:19:32.726Z,91.90
2022-12-29T10:22:00.040Z,91.50
2022-12-29T10:24:26.723Z,91.10
2022-12-29T10:26:53.714Z,90.80
2022-12-29T10:29:20.423Z,90.70
2022-12-29T10:31:47.200Z,90.90
2022-12-29T10:34:13.996Z,91.20
2022-12-29T10:36:41.007Z,91.30
2022-12-29T10:39:07.913Z,91.70
2022-12-29T10:41:34.642Z,91.50
2022-12-29T10:44:01.395Z,92.20
2022-12-29T10:46:28.095Z,90.70
2022-12-29T10:48:54.762Z,91.00
2022-12-29T10:51:21.493Z,90.40
2022-12-29T10:53:48.187Z,90.90
2022-12-29T10:56:14.994Z,90.70
2022-12-29T10:58:43.731Z,90.40
2022-12-29T11:01:13.741Z,90.30
2022-12-29T11:03:40.440Z,91.90
2022-12-29T11:06:07.199Z,92.10
2022-12-29T11:08:33.967Z,90.90
2022-12-29T11:11:01.261Z,90.60
2022-12-29T11:13:29.926Z,91.20
2022-12-29T11:16:01.904Z,91.00
2022-12-29T11:18:28.712Z,90.80
2022-12-29T11:20:55.396Z,91.10
2022-12-29T11:23:22.108Z,89.50
2022-12-29T11:25:48.900Z,90.40
2022-12-29T11:28:15.656Z,89.80
2022-12-29T11:30:42.413Z,90.50
2022-12-29T11:33:09.121Z,90.00
2022-12-29T11:35:35.899Z,88.50
2022-12-29T11:38:02.546Z,87.70
2022-12-29T11:40:29.244Z,90.10
2022-12-29T11:42:55.947Z,89.10
2022-12-29T11:45:22.586Z,87.00
2022-12-29T11:47:49.297Z,89.30
2022-12-29T11:50:15.948Z,87.10
2022-12-29T11:52:42.605Z,86.90
2022-12-29T11:55:09.349Z,85.70
2022-12-29T11:57:35.998Z,86.80
2022-12-29T12:00:02.818Z,84.70
2022-12-29T12:02:30.350Z,86.30
2022-12-29T12:04:57.131Z,84.70
2022-12-29T12:07:23.761Z,85.20
2022-12-29T12:09:50.461Z,83.90
2022-12-29T12:12:17.122Z,86.30
2022-12-29T12:14:44.599Z,85.30
2022-12-29T12:17:11.525Z,85.60
2022-12-29T12:19:38.644Z,84.10
2022-12-29T12:22:05.520Z,84.40
2022-12-29T12:24:32.231Z,84.60
2022-12-29T12:26:58.873Z,83.30
2022-12-29T12:29:25.591Z,87.00
2022-12-29T12:31:52.715Z,85.00
2022-12-29T12:34:19.394Z,85.20
2022-12-29T12:36:46.180Z,84.20
2022-12-29T12:39:12.820Z,83.60
2022-12-29T12:41:39.601Z,82.70
2022-12-29T12:44:06.491Z,84.30
2022-12-29T12:46:33.190Z,85.50
2022-12-29T12:48:59.982Z,85.00
2022-12-29T12:51:26.766Z,82.40
2022-12-29T12:53:53.531Z,81.90
2022-12-29T12:56:20.199Z,82.40
2022-12-29T12:58:46.911Z,83.10
2022-12-29T13:01:14.037Z,83.40
2022-12-29T13:03:40.828Z,83.30
2022-12-29T13:06:07.519Z,81.10
2022-12-29T13:08:34.181Z,83.30
2022-12-29T13:11:00.919Z,84.30
2022-12-29T13:13:27.644Z,81.20
2022-12-29T13:15:54.530Z,83.50
2022-12-29T13:18:21.189Z,81.60
2022-12-29T13:20:47.812Z,81.90
2022-12-29T13:23:14.509Z,80.60
2022-12-29T13:25:41.256Z,80.80
2022-12-29T13:28:08.263Z,79.60
2022-12-29T13:30:35.108Z,78.20
2022-12-29T13:33:01.893Z,78.00
2022-12-29T13:35:28.798Z,81.00
2022-12-29T13:37:55.559Z,83.90
2022-12-29T13:40:23.183Z,83.90
2022-12-29T13:42:49.916Z,79.70
2022-12-29T13:45:16.812Z,81.10
2022-12-29T13:47:43.556Z,81.70
2022-12-29T13:50:10.373Z,80.90
2022-12-29T13:52:37.056Z,78.40
2022-12-29T13:55:04.115Z,78.40
2022-12-29T13:57:31.036Z,77.70
2022-12-29T13:59:57.874Z,79.80
2022-12-29T14:02:25.013Z,80.60
2022-12-29T14:04:51.847Z,80.00
2022-12-29T14:07:18.561Z,80.00
2022-12-29T14:09:45.350Z,78.60
2022-12-29T14:12:12.157Z,79.10
2022-12-29T14:14:39.009Z,79.40
2022-12-29T14:17:08.978Z,78.00
2022-12-29T14:19:38.051Z,77.80
2022-12-29T14:22:04.829Z,78.80
2022-12-29T14:24:31.463Z,78.00
2022-12-29T14:26:58.186Z,78.20
2022-12-29T14:29:24.924Z,76.60
2022-12-29T14:31:51.798Z,76.10
2022-12-29T14:34:18.546Z,76.00
2022-12-29T14:36:45.205Z,77.50
2022-12-29T14:39:11.832Z,76.90
2022-12-29T14:41:38.497Z,80.70
2022-12-29T14:44:05.181Z,78.40
2022-12-29T14:46:31.926Z,80.20
2022-12-29T14:48:59.328Z,78.60
2022-12-29T14:51:25.952Z,79.20
2022-12-29T14:53:52.594Z,79.50
2022-12-29T14:56:19.292Z,79.90
2022-12-29T14:58:45.923Z,79.20
2022-12-29T15:01:12.686Z,79.20
2022-12-29T15:03:39.430Z,79.30
2022-12-29T15:06:09.712Z,80.20
2022-12-29T15:08:36.910Z,78.90
2022-12-29T15:11:03.583Z,78.80
2022-12-29T15:13:30.224Z,78.50
2022-12-29T15:15:56.891Z,78.50
2022-12-29T15:18:24.801Z,78.80
2022-12-29T15:20:51.530Z,79.60
2022-12-29T15:23:18.538Z,79.30
2022-12-29T15:25:46.017Z,78.60
2022-12-29T15:28:12.677Z,76.90
2022-12-29T15:30:39.491Z,78.30
2022-12-29T15:33:08.615Z,78.60
2022-12-29T15:35:35.636Z,79.10
2022-12-29T15:38:04.397Z,77.70
2022-12-29T15:40:31.196Z,78.60
2022-12-29T15:42:57.899Z,81.00
2022-12-29T15:45:24.743Z,78.90
2022-12-29T15:47:51.561Z,79.10
2022-12-29T15:50:18.213Z,81.20
2022-12-29T15:52:44.938Z,80.60
2022-12-29T15:55:11.585Z,81.10
2022-12-29T15:57:38.615Z,78.80
2022-12-29T16:00:05.302Z,79.30
2022-12-29T16:02:32.254Z,80.20
2022-12-29T16:05:17.289Z,79.60
2022-12-29T16:07:44.819Z,80.40
2022-12-29T16:10:11.558Z,78.30
2022-12-29T16:12:39.129Z,80.10
2022-12-29T16:15:05.895Z,80.70
2022-12-29T16:17:32.764Z,78.80
2022-12-29T16:19:59.682Z,81.60
2022-12-29T16:22:26.491Z,78.40
2022-12-29T16:24:53.193Z,82.00
2022-12-29T16:27:19.901Z,83.40
2022-12-29T16:29:51.458Z,79.20
2022-12-29T16:32:18.120Z,80.30
2022-12-29T16:34:46.311Z,80.80
2022-12-29T16:37:13.239Z,81.30
2022-12-29T16:39:43.226Z,82.10
2022-12-29T16:42:09.894Z,82.40
2022-12-29T16:44:39.543Z,80.60
2022-12-29T16:47:06.247Z,79.60
2022-12-29T16:49:32.981Z,81.20
2022-12-29T16:51:59.912Z,81.60
2022-12-29T16:54:26.603Z,81.70
2022-12-29T16:56:53.363Z,82.40
2022-12-29T16:59:20.089Z,82.00
2022-12-29T17:01:46.881Z,83.00
2022-12-29T17:04:13.639Z,82.90
2022-12-29T17:06:40.289Z,83.10
2022-12-29T17:09:06.973Z,82.50
2022-12-29T17:11:58.427Z,82.80
2022-12-29T17:14:26.899Z,83.60
2022-12-29T17:16:53.590Z,87.10
2022-12-29T17:19:20.262Z,84.20
2022-12-29T17:21:46.938Z,84.20
2022-12-29T17:24:13.604Z,83.80
2022-12-29T17:26:40.416Z,85.30
2022-12-29T17:29:07.093Z,83.70
2022-12-29T17:31:33.937Z,84.80
2022-12-29T17:34:01.239Z,85.20
2022-12-29T17:36:27.843Z,87.00
2022-12-29T17:38:54.535Z,86.10
2022-12-29T17:41:21.246Z,86.10
2022-12-29T17:43:47.954Z,85.20
2022-12-29T17:46:14.699Z,86.10
2022-12-29T17:48:41.432Z,85.10
2022-12-29T17:51:08.222Z,87.90
2022-12-29T17:53:34.976Z,86.40
2022-12-29T17:56:01.726Z,86.20
2022-12-29T17:58:28.585Z,87.60
2022-12-29T18:00:55.406Z,87.50
2022-12-29T18:03:22.306Z,88.00
2022-12-29T18:05:50.471Z,88.20
2022-12-29T18:08:17.239Z,89.90
2022-12-29T18:10:43.852Z,88.90
2022-12-29T18:13:10.581Z,87.10
2022-12-29T18:15:37.677Z,87.20
2022-12-29T18:18:04.471Z,89.50
2022-12-29T18:20:31.521Z,90.00
2022-12-29T18:22:59.204Z,89.20
2022-12-29T18:25:25.879Z,90.00
2022-12-29T18:27:52.607Z,88.90
2022-12-29T18:30:19.352Z,88.80
2022-12-29T18:32:46.094Z,89.70
2022-12-29T18:35:12.776Z,90.80
2022-12-29T18:37:39.426Z,90.30
2022-12-29T18:40:06.212Z,90.40
2022-12-29T18:42:32.877Z,90.00
2022-12-29T18:44:59.585Z,90.60
2022-12-29T18:47:26.313Z,91.40
2022-12-29T18:49:54.538Z,90.50
2022-12-29T18:52:21.268Z,90.80
2022-12-29T18:54:47.937Z,90.60
2022-12-29T18:57:14.601Z,91.30
2022-12-29T18:59:41.263Z,90.20
2022-12-29T19:02:08.033Z,90.60
2022-12-29T19:04:34.844Z,91.10
2022-12-29T19:07:01.581Z,90.90
2022-12-29T19:09:28.345Z,91.00
2022-12-29T19:11:55.016Z,90.70
2022-12-29T19:14:21.724Z,91.50
2022-12-29T19:16:48.586Z,90.80
2022-12-29T19:19:15.491Z,91.20
2022-12-29T19:21:42.361Z,90.70
2022-12-29T19:24:09.070Z,91.30
2022-12-29T19:26:36.809Z,91.10
2022-12-29T19:29:03.850Z,90.90
2022-12-29T19:31:30.574Z,91.10
2022-12-29T19:33:57.310Z,91.50
2022-12-29T19:36:24.137Z,91.70
2022-12-29T19:38:50.926Z,91.20
2022-12-29T19:41:17.679Z,92.00
2022-12-29T19:43:44.413Z,91.50
2022-12-29T19:46:11.267Z,92.00
2022-12-29T19:48:37.995Z,91.90
2022-12-29T19:51:04.770Z,92.00
2022-12-29T19:53:31.489Z,91.40
2022-12-29T19:55:58.156Z,91.90
2022-12-29T19:58:24.758Z,92.10
2022-12-29T20:00:51.626Z,91.80
2022-12-29T20:03:19.387Z,91.80
2022-12-29T20:05:46.220Z,92.40
2022-12-29T20:08:12.961Z,92.20
2022-12-29T20:10:39.614Z,92.10
2022-12-29T20:13:06.362Z,92.30
2022-12-29T20:15:33.075Z,92.10
2022-12-29T20:18:13.027Z,92.40
2022-12-29T20:20:40.209Z,93.20
2022-12-29T20:23:07.014Z,92.90
2022-12-29T20:25:44.849Z,92.90
2022-12-29T20:28:12.685Z,93.10
2022-12-29T20:30:39.416Z,93.40
2022-12-29T20:33:08.331Z,93.60
2022-12-29T20:35:35.582Z,94.50
2022-12-29T20:38:02.288Z,94.10
2022-12-29T20:40:29.002Z,95.30
2022-12-29T20:42:55.886Z,94.60
2022-12-29T20:45:22.685Z,94.60
2022-12-29T20:47:49.472Z,95.00
2022-12-29T20:50:16.343Z,94.70
2022-12-29T20:52:43.080Z,94.80
2022-12-29T20:55:09.730Z,95.10
2022-12-29T20:58:05.664Z,95.50
2022-12-29T21:00:23.561Z,95.30
2022-12-29T21:02:50.562Z,95.50
2022-12-29T21:05:25.637Z,95.40
2022-12-29T21:07:52.658Z,95.30
2022-12-29T21:10:19.415Z,95.20
2022-12-29T21:12:46.210Z,95.70
2022-12-29T21:15:15.319Z,95.50
2022-12-29T21:17:42.070Z,95.60
2022-12-29T21:20:08.762Z,95.90
2022-12-29T21:22:35.481Z,95.90
2022-12-29T21:25:02.292Z,95.80
2022-12-29T21:27:29.499Z,95.90
2022-12-29T21:29:58.046Z,96.10
2022-12-29T21:32:24.711Z,96.00
2022-12-29T21:34:51.436Z,96.50
2022-12-29T21:37:23.392Z,96.50
2022-12-29T21:39:50.467Z,96.50
2022-12-29T21:42:17.220Z,96.60
2022-12-29T21:45:02.804Z,97.10
2022-12-29T21:47:49.466Z,96.70
2022-12-29T21:50:16.108Z,96.60
2022-12-29T21:52:42.779Z,97.00
2022-12-29T21:55:09.463Z,96.70
2022-12-29T21:57:54.816Z,96.70
2022-12-29T22:00:40.342Z,96.90
2022-12-29T22:03:25.769Z,96.90
2022-12-29T22:06:11.348Z,97.50
2022-12-29T22:08:56.813Z,96.90
2022-12-29T22:11:42.311Z,97.40
2022-12-29T22:14:09.073Z,97.30
2022-12-29T22:16:35.770Z,97.00
2022-12-29T22:19:02.591Z,97.50
2022-12-29T22:21:29.247Z,97.00
2022-12-29T22:23:55.947Z,97.20
2022-12-29T22:26:22.666Z,97.50
2022-12-29T22:28:52.031Z,97.60
2022-12-29T22:31:18.774Z,97.30
2022-12-29T22:33:45.585Z,97.50
2022-12-29T22:36:12.225Z,97.90
2022-12-29T22:38:38.936Z,98.10
2022-12-29T22:41:05.621Z,98.00
2022-12-29T22:43:32.314Z,98.30
2022-12-29T22:45:59.038Z,98.20
2022-12-29T22:48:25.756Z,98.50
2022-12-29T22:50:52.390Z,98.60
2022-12-29T22:53:19.214Z,98.90
2022-12-29T22:55:45.814Z,99.00
2022-12-29T22:58:12.468Z,98.70
2022-12-29T23:00:39.150Z,98.70
2022-12-29T23:03:06.079Z,98.80
2022-12-29T23:05:32.910Z,98.80
2022-12-29T23:07:59.617Z,98.60
2022-12-29T23:10:26.257Z,98.70
2022-12-29T23:12:52.897Z,98.90
2022-12-29T23:15:19.521Z,98.80
2022-12-29T23:17:46.285Z,99.00
2022-12-29T23:20:12.914Z,99.20
2022-12-29T23:22:39.645Z,99.20
2022-12-29T23:25:06.339Z,99.30
2022-12-29T23:27:33.054Z,99.10
2022-12-29T23:29:59.754Z,99.10
2022-12-29T23:32:26.496Z,99.00
2022-12-29T23:34:53.197Z,99.30
2022-12-29T23:37:19.971Z,99.20
2022-12-29T23:39:46.609Z,99.50
2022-12-29T23:42:13.317Z,99.40
2022-12-29T23:44:40.038Z,99.50
2022-12-29T23:47:06.789Z,99.70
2022-12-29T23:49:33.532Z,99.70
2022-12-29T23:52:00.137Z,99.80
2022-12-29T23:54:26.815Z,99.90
2022-12-29T23:56:53.455Z,99.70
2022-12-29T23:59:20.225Z,99.70
